Time;durP1;ratioP1;P1;durP2;ratioP2;P2;SDS_P1;SDS_P2;PMS_P1;PMS_P2;Temp;Humidity;BMP_temperature;BMP_pressure;BME280_temperature;BME280_humidity;BME280_pressure;Samples;Min_cycle;Max_cycle;Signal;HPM_P1;HPM_P2
2022/04/07 00:01:08;;;;;;;5.23;4.73;;;9.90;99.90;;;;;;4982591;28;20407;-72
2022/04/07 00:03:34;;;;;;;4.60;4.20;;;10.00;99.90;;;;;;4979363;28;20035;-72
2022/04/07 00:06:00;;;;;;;6.50;4.80;;;9.90;99.90;;;;;;4970074;28;20039;-72
2022/04/07 00:08:26;;;;;;;6.20;5.23;;;9.90;99.90;;;;;;4970150;28;20039;-72
2022/04/07 00:10:52;;;;;;;5.90;4.60;;;10.40;99.90;;;;;;4981689;28;20038;-72
2022/04/07 00:13:18;;;;;;;6.80;4.87;;;9.90;99.90;;;;;;4970188;28;20046;-72
2022/04/07 00:15:43;;;;;;;7.87;5.90;;;10.00;99.90;;;;;;4987002;28;20456;-72
2022/04/07 00:18:09;;;;;;;5.53;5.03;;;10.10;99.90;;;;;;4970401;28;20114;-72
2022/04/07 00:20:35;;;;;;;6.63;4.83;;;10.00;99.90;;;;;;4985192;28;20161;-72
2022/04/07 00:23:01;;;;;;;5.30;4.80;;;9.90;99.90;;;;;;4969941;28;20027;-71
2022/04/07 00:25:27;;;;;;;6.83;5.50;;;10.10;99.90;;;;;;4972233;28;20065;-72
2022/04/07 00:27:53;;;;;;;7.30;4.73;;;10.00;99.90;;;;;;4988885;28;20400;-72
2022/04/07 00:30:20;;;;;;;6.03;5.43;;;9.70;99.90;;;;;;4972530;28;20061;-72
2022/04/07 00:32:49;;;;;;;6.70;5.17;;;9.80;99.90;;;;;;4980588;28;20038;-72
2022/04/07 00:35:15;;;;;;;7.33;5.47;;;9.80;99.90;;;;;;4986893;28;20042;-72
2022/04/07 00:37:41;;;;;;;5.73;4.77;;;9.80;99.90;;;;;;4971910;28;20054;-72
2022/04/07 00:40:08;;;;;;;5.43;4.83;;;9.90;99.90;;;;;;4976019;28;20114;-72
2022/04/07 00:42:42;;;;;;;6.07;5.37;;;9.40;99.90;;;;;;4988374;28;20081;-72
2022/04/07 00:45:08;;;;;;;6.13;4.82;;;9.80;99.90;;;;;;4977659;28;20030;-72
2022/04/07 00:47:34;;;;;;;5.43;4.93;;;;;;;;;;4991718;28;20063;-72
2022/04/07 00:50:00;;;;;;;8.20;4.80;;;9.80;99.90;;;;;;4973405;28;20109;-72
2022/04/07 00:52:28;;;;;;;6.97;5.70;;;9.70;99.90;;;;;;4981601;28;20486;-72
2022/04/07 00:54:53;;;;;;;7.23;4.63;;;9.70;99.90;;;;;;4980865;28;20615;-72
2022/04/07 00:57:19;;;;;;;7.73;4.67;;;9.90;99.90;;;;;;4979544;28;20030;-72
2022/04/07 00:59:46;;;;;;;5.57;4.27;;;9.90;99.90;;;;;;4989832;28;20030;-72
2022/04/07 01:02:12;;;;;;;8.87;3.97;;;9.70;99.90;;;;;;4980912;28;20031;-72
2022/04/07 01:04:38;;;;;;;5.37;2.57;;;9.80;99.90;;;;;;4981653;28;20045;-72
2022/04/07 01:07:06;;;;;;;6.57;3.30;;;9.80;99.90;;;;;;4992293;28;20042;-72
2022/04/07 01:09:31;;;;;;;5.93;2.57;;;9.70;99.90;;;;;;4982964;28;20380;-72
2022/04/07 01:11:57;;;;;;;6.00;3.13;;;9.80;99.90;;;;;;4972780;28;20036;-72
2022/04/07 01:14:23;;;;;;;3.60;2.33;;;;;;;;;;4978748;28;20049;-72
2022/04/07 01:16:48;;;;;;;5.40;2.30;;;9.90;99.90;;;;;;4983843;28;20035;-72
2022/04/07 01:19:14;;;;;;;8.33;2.83;;;9.80;99.90;;;;;;4972760;28;20468;-72
2022/04/07 01:21:41;;;;;;;7.97;3.17;;;9.60;99.90;;;;;;4972139;28;20085;-72
2022/04/07 01:24:08;;;;;;;8.60;2.50;;;9.70;99.90;;;;;;4977554;28;20023;-72
2022/04/07 01:26:39;;;;;;;7.10;2.80;;;9.60;99.90;;;;;;4960840;28;20063;-72
2022/04/07 01:29:07;;;;;;;5.03;2.23;;;9.50;99.90;;;;;;4953899;28;20035;-72
2022/04/07 01:31:33;;;;;;;7.13;2.03;;;9.40;99.90;;;;;;4967514;28;20456;-72
2022/04/07 01:33:59;;;;;;;8.37;3.13;;;9.40;99.90;;;;;;4971028;28;20035;-72
2022/04/07 01:36:33;;;;;;;4.70;2.50;;;9.30;99.90;;;;;;4971442;28;20022;-72
2022/04/07 01:39:01;;;;;;;10.70;3.00;;;9.40;99.90;;;;;;4968518;28;20440;-72
2022/04/07 01:41:27;;;;;;;8.73;2.37;;;;;;;;;;4960374;28;20038;-72
2022/04/07 01:43:56;;;;;;;7.40;2.10;;;9.40;99.90;;;;;;4955503;28;20515;-72
2022/04/07 01:46:22;;;;;;;8.20;2.07;;;9.40;99.90;;;;;;4970361;28;20026;-72
2022/04/07 01:48:50;;;;;;;6.90;2.30;;;9.30;99.90;;;;;;4969074;28;20027;-72
2022/04/07 01:51:16;;;;;;;4.40;2.93;;;9.20;99.90;;;;;;4952988;28;20019;-72
2022/04/07 01:53:43;;;;;;;5.53;2.50;;;9.20;99.90;;;;;;4958269;28;20030;-72
2022/04/07 01:56:09;;;;;;;6.33;2.53;;;9.20;99.90;;;;;;4951800;28;20133;-71
2022/04/07 01:58:36;;;;;;;12.83;2.73;;;9.50;99.90;;;;;;4963784;28;20030;-71
2022/04/07 02:01:03;;;;;;;7.00;2.80;;;9.40;99.90;;;;;;4967079;28;20023;-72
2022/04/07 02:03:28;;;;;;;7.73;2.73;;;9.30;99.90;;;;;;4959317;28;20023;-72
2022/04/07 02:05:54;;;;;;;4.27;2.90;;;9.30;99.90;;;;;;4971559;28;20343;-71
2022/04/07 02:08:19;;;;;;;8.23;2.57;;;9.20;99.90;;;;;;4972039;28;20401;-72
2022/04/07 02:10:45;;;;;;;8.50;3.07;;;9.30;99.90;;;;;;4957532;28;20033;-72
2022/04/07 02:13:10;;;;;;;6.27;3.10;;;9.40;99.90;;;;;;4967006;28;20041;-72
2022/04/07 02:15:36;;;;;;;8.73;3.30;;;9.40;99.90;;;;;;4969182;28;20027;-72
2022/04/07 02:18:02;;;;;;;7.23;3.43;;;9.40;99.90;;;;;;4954087;28;20038;-72
2022/04/07 02:20:27;;;;;;;7.57;3.10;;;9.20;99.90;;;;;;4954614;28;20023;-72
2022/04/07 02:22:53;;;;;;;5.30;3.67;;;9.20;99.90;;;;;;4971509;28;20210;-72
2022/04/07 02:25:23;;;;;;;8.47;3.10;;;9.70;99.90;;;;;;4975029;28;20097;-71
2022/04/07 02:27:48;;;;;;;7.90;3.53;;;9.60;99.90;;;;;;4982275;28;20134;-72
2022/04/07 02:30:14;;;;;;;11.33;3.67;;;9.30;99.90;;;;;;4972981;28;20125;-72
2022/04/07 02:32:41;;;;;;;12.50;3.30;;;9.30;99.90;;;;;;4979440;28;20034;-73
2022/04/07 02:35:11;;;;;;;8.10;3.77;;;9.20;99.90;;;;;;4990614;28;20022;-72
2022/04/07 02:37:37;;;;;;;9.43;4.33;;;;;;;;;;4990302;28;20494;-72
2022/04/07 02:40:03;;;;;;;9.00;4.43;;;8.90;99.90;;;;;;4978086;28;20034;-72
2022/04/07 02:42:29;;;;;;;7.37;3.67;;;8.80;99.90;;;;;;4986423;28;20038;-72
2022/04/07 02:44:54;;;;;;;7.90;3.83;;;8.90;99.90;;;;;;4971176;28;20031;-72
2022/04/07 02:47:20;;;;;;;12.53;4.63;;;9.30;99.90;;;;;;4982049;28;20097;-72
2022/04/07 02:49:46;;;;;;;9.30;4.03;;;9.20;99.90;;;;;;4980562;28;20117;-72
2022/04/07 02:52:12;;;;;;;9.90;4.10;;;8.80;99.90;;;;;;4971145;28;20027;-72
2022/04/07 02:54:38;;;;;;;14.53;3.77;;;9.10;99.90;;;;;;4979395;28;20598;-72
2022/04/07 02:57:04;;;;;;;7.80;3.20;;;9.10;99.90;;;;;;4973500;28;20054;-72
2022/04/07 02:59:31;;;;;;;6.40;3.13;;;9.10;99.90;;;;;;4977424;28;20130;-72
2022/04/07 03:01:58;;;;;;;9.00;3.43;;;9.00;99.90;;;;;;4986875;28;20173;-72
2022/04/07 03:04:24;;;;;;;14.83;3.57;;;;;;;;;;4970817;28;20031;-72
2022/04/07 03:06:51;;;;;;;13.40;4.77;;;9.10;99.90;;;;;;4984821;28;20490;-72
2022/04/07 03:09:20;;;;;;;15.83;4.50;;;9.20;99.90;;;;;;4983799;28;20038;-72
2022/04/07 03:11:46;;;;;;;10.23;5.10;;;9.10;99.90;;;;;;4982359;28;20535;-72
2022/04/07 03:14:13;;;;;;;12.23;4.47;;;9.20;99.90;;;;;;4982279;28;20054;-72
2022/04/07 03:16:39;;;;;;;11.13;3.37;;;9.20;99.90;;;;;;4978088;28;20480;-72
2022/04/07 03:19:05;;;;;;;11.63;3.73;;;;;;;;;;4970817;28;20483;-72
2022/04/07 03:21:31;;;;;;;9.47;3.93;;;;;;;;;;4970235;28;20054;-72
2022/04/07 03:23:57;;;;;;;12.93;3.90;;;9.30;99.90;;;;;;4974022;28;20042;-72
2022/04/07 03:26:22;;;;;;;18.50;4.90;;;;;;;;;;4990084;28;20124;-72
2022/04/07 03:28:48;;;;;;;13.97;4.00;;;9.40;99.90;;;;;;4988200;28;20022;-72
2022/04/07 03:31:14;;;;;;;10.13;3.30;;;;;;;;;;4990164;28;20105;-72
2022/04/07 03:33:40;;;;;;;10.50;2.70;;;9.40;99.90;;;;;;4982386;28;20391;-72
2022/04/07 03:36:05;;;;;;;10.70;3.50;;;9.40;99.90;;;;;;4970923;28;20042;-72
2022/04/07 03:38:31;;;;;;;13.40;2.93;;;;;;;;;;4983720;28;20061;-72
2022/04/07 03:40:57;;;;;;;13.57;3.40;;;9.40;99.90;;;;;;4978194;28;20077;-72
2022/04/07 03:43:22;;;;;;;11.47;3.37;;;9.70;99.90;;;;;;4989756;28;20451;-72
2022/04/07 03:45:48;;;;;;;9.63;2.57;;;9.60;99.90;;;;;;4971616;28;20043;-72
2022/04/07 03:48:14;;;;;;;14.23;3.70;;;9.40;99.90;;;;;;4970663;28;20034;-72
2022/04/07 03:50:40;;;;;;;10.00;2.90;;;9.60;99.90;;;;;;4987383;28;20031;-72
2022/04/07 03:53:06;;;;;;;14.87;4.53;;;9.50;99.90;;;;;;4987030;28;20026;-72
2022/04/07 03:55:32;;;;;;;15.77;3.70;;;9.40;99.90;;;;;;4970197;28;20035;-72
2022/04/07 03:57:57;;;;;;;13.80;3.57;;;9.40;99.90;;;;;;4970422;28;20337;-72
2022/04/07 04:00:23;;;;;;;7.73;3.10;;;9.30;99.90;;;;;;4986235;28;20065;-72
2022/04/07 04:02:50;;;;;;;9.43;3.07;;;9.40;99.90;;;;;;4983527;28;20034;-72
2022/04/07 04:05:16;;;;;;;11.40;3.87;;;9.10;99.90;;;;;;4988520;28;20120;-72
2022/04/07 04:07:42;;;;;;;10.17;3.50;;;;;;;;;;4988368;28;20039;-72
2022/04/07 04:10:08;;;;;;;18.53;4.07;;;9.40;99.90;;;;;;4989602;28;20185;-72
2022/04/07 04:12:34;;;;;;;14.83;4.57;;;;;;;;;;4987536;28;20450;-72
2022/04/07 04:15:01;;;;;;;12.40;4.00;;;9.30;99.90;;;;;;4989392;28;20101;-72
2022/04/07 04:17:31;;;;;;;10.30;3.10;;;9.30;99.90;;;;;;4988181;28;20494;-73
2022/04/07 04:19:57;;;;;;;19.13;3.37;;;9.20;99.90;;;;;;4986609;28;20106;-72
2022/04/07 04:22:23;;;;;;;9.13;2.70;;;;;;;;;;4977125;28;20117;-73
2022/04/07 04:24:49;;;;;;;7.93;3.40;;;9.50;99.90;;;;;;4985227;28;20443;-73
2022/04/07 04:27:14;;;;;;;8.50;3.17;;;9.40;99.90;;;;;;4993420;28;20030;-72
2022/04/07 04:29:41;;;;;;;13.37;3.20;;;9.40;99.90;;;;;;4991107;28;20457;-73
2022/04/07 04:32:07;;;;;;;17.73;3.30;;;9.50;99.90;;;;;;4992860;28;20045;-73
2022/04/07 04:34:32;;;;;;;9.10;3.53;;;9.40;99.90;;;;;;4972243;28;20038;-72
2022/04/07 04:36:58;;;;;;;9.23;2.27;;;9.60;99.90;;;;;;4985960;28;20060;-72
2022/04/07 04:39:24;;;;;;;11.77;3.57;;;9.50;99.90;;;;;;4987797;28;20085;-73
2022/04/07 04:41:50;;;;;;;4.77;2.37;;;9.50;99.90;;;;;;4973311;28;20085;-72
2022/04/07 04:44:15;;;;;;;7.40;2.23;;;9.70;99.90;;;;;;4978934;28;20030;-72
2022/04/07 04:46:41;;;;;;;10.00;2.37;;;10.00;99.90;;;;;;4977944;28;20050;-72
2022/04/07 04:49:07;;;;;;;12.30;2.80;;;;;;;;;;4991559;28;20018;-72
2022/04/07 04:51:32;;;;;;;9.33;2.13;;;9.70;99.90;;;;;;4991593;28;20111;-72
2022/04/07 04:53:58;;;;;;;11.27;3.30;;;;;;;;;;4977960;28;20037;-72
2022/04/07 04:56:26;;;;;;;11.57;3.10;;;9.70;99.90;;;;;;4981403;28;20030;-72
2022/04/07 04:58:53;;;;;;;7.67;3.03;;;9.60;99.90;;;;;;4990950;28;20023;-72
2022/04/07 05:01:19;;;;;;;8.37;2.73;;;;;;;;;;4992070;28;20052;-73
2022/04/07 05:03:44;;;;;;;11.97;3.17;;;9.70;99.90;;;;;;4977833;28;20503;-72
2022/04/07 05:06:10;;;;;;;5.83;2.23;;;9.70;99.90;;;;;;4977852;28;20042;-72
2022/04/07 05:08:35;;;;;;;7.83;1.90;;;9.80;99.90;;;;;;4986931;28;20038;-72
2022/04/07 05:11:01;;;;;;;9.00;2.17;;;;;;;;;;4992469;28;20029;-72
2022/04/07 05:13:27;;;;;;;6.10;1.97;;;;;;;;;;4990571;28;20030;-72
2022/04/07 05:15:53;;;;;;;4.60;2.10;;;;;;;;;;4955300;28;20031;-72
2022/04/07 05:18:19;;;;;;;4.03;1.60;;;;;;;;;;4954648;28;20756;-73
2022/04/07 05:20:44;;;;;;;5.83;1.37;;;9.80;99.90;;;;;;4988318;28;20054;-72
2022/04/07 05:23:10;;;;;;;5.33;1.70;;;9.70;99.90;;;;;;4982102;28;20037;-72
2022/04/07 05:25:35;;;;;;;4.90;1.87;;;9.80;99.90;;;;;;4984607;28;20058;-71
2022/04/07 05:28:01;;;;;;;6.43;1.93;;;9.90;99.90;;;;;;4986039;28;20423;-72
2022/04/07 05:30:27;;;;;;;4.90;1.87;;;9.80;99.90;;;;;;4991962;28;20025;-72
2022/04/07 05:32:53;;;;;;;5.47;1.30;;;;;;;;;;4987403;28;20455;-72
2022/04/07 05:35:18;;;;;;;4.50;1.43;;;9.70;99.90;;;;;;4984137;28;20026;-72
2022/04/07 05:37:44;;;;;;;5.47;1.57;;;9.80;99.90;;;;;;4991788;28;20573;-72
2022/04/07 05:40:11;;;;;;;3.60;1.03;;;9.70;99.90;;;;;;4974126;28;20037;-72
2022/04/07 05:42:37;;;;;;;5.00;1.33;;;9.80;99.90;;;;;;4955049;28;20035;-71
2022/04/07 05:45:04;;;;;;;5.97;1.53;;;9.80;99.90;;;;;;4972765;28;20049;-72
2022/04/07 05:47:29;;;;;;;3.60;1.20;;;;;;;;;;4972116;28;20039;-72
2022/04/07 05:49:56;;;;;;;3.10;1.03;;;9.80;99.90;;;;;;4971900;28;20522;-72
2022/04/07 05:52:22;;;;;;;4.17;1.30;;;9.80;99.90;;;;;;4990909;28;20031;-72
2022/04/07 05:54:48;;;;;;;4.40;1.43;;;9.80;99.90;;;;;;4991582;28;20369;-72
2022/04/07 05:57:13;;;;;;;3.53;1.40;;;9.70;99.90;;;;;;4992000;28;20026;-72
2022/04/07 05:59:39;;;;;;;4.13;1.60;;;;;;;;;;4991337;28;20026;-72
2022/04/07 06:02:05;;;;;;;1.87;1.03;;;9.80;99.90;;;;;;4991619;28;20049;-72
2022/04/07 06:04:31;;;;;;;4.50;1.60;;;;;;;;;;4990954;28;20101;-72
2022/04/07 06:06:56;;;;;;;1.50;1.10;;;9.70;99.90;;;;;;4973929;28;20503;-72
2022/04/07 06:09:22;;;;;;;5.17;1.10;;;9.60;99.90;;;;;;4991555;28;20037;-72
2022/04/07 06:11:47;;;;;;;4.07;1.30;;;9.70;99.90;;;;;;4991221;28;20100;-72
2022/04/07 06:14:13;;;;;;;4.57;1.73;;;9.50;99.90;;;;;;4991493;28;20435;-72
2022/04/07 06:16:39;;;;;;;2.50;1.37;;;;;;;;;;4978728;28;20050;-72
2022/04/07 06:19:04;;;;;;;4.50;1.33;;;9.50;99.90;;;;;;4971768;28;20027;-72
2022/04/07 06:21:30;;;;;;;3.73;1.60;;;;;;;;;;4986293;28;20041;-72
2022/04/07 06:23:59;;;;;;;3.53;1.47;;;9.50;99.90;;;;;;4991498;28;20030;-72
2022/04/07 06:26:25;;;;;;;4.07;1.37;;;9.60;99.90;;;;;;4990973;28;20542;-72
2022/04/07 06:28:50;;;;;;;4.63;1.43;;;9.50;99.90;;;;;;4990999;28;20118;-72
2022/04/07 06:31:16;;;;;;;3.30;1.70;;;9.30;99.90;;;;;;4991148;28;20030;-72
2022/04/07 06:33:41;;;;;;;3.53;1.40;;;9.40;99.90;;;;;;4988678;28;20022;-72
2022/04/07 06:36:07;;;;;;;6.43;2.10;;;9.40;99.90;;;;;;4977184;28;20122;-72
2022/04/07 06:38:33;;;;;;;3.90;1.93;;;9.30;99.90;;;;;;4971242;28;20085;-72
2022/04/07 06:41:01;;;;;;;3.33;1.93;;;9.50;99.90;;;;;;4971224;28;20085;-72
2022/04/07 06:43:27;;;;;;;8.37;3.53;;;;;;;;;;4971065;28;20058;-72
2022/04/07 06:45:53;;;;;;;5.83;2.30;;;9.40;99.90;;;;;;4971103;28;20486;-73
2022/04/07 06:48:19;;;;;;;3.20;1.93;;;;;;;;;;4971099;28;20117;-72
2022/04/07 06:50:45;;;;;;;4.67;2.30;;;9.40;99.90;;;;;;4953682;28;20031;-71
2022/04/07 06:53:14;;;;;;;3.77;2.40;;;;;;;;;;4971279;28;20101;-71
2022/04/07 06:55:41;;;;;;;7.73;2.70;;;;;;;;;;4974200;28;20595;-72
2022/04/07 06:58:10;;;;;;;4.70;2.33;;;9.40;99.90;;;;;;4989054;28;20025;-73
2022/04/07 07:00:42;;;;;;;7.77;2.40;;;9.20;99.90;;;;;;4985054;28;20041;-73
2022/04/07 07:03:08;;;;;;;8.20;3.13;;;;;;;;;;4987824;28;20109;-74
2022/04/07 07:05:36;;;;;;;6.67;2.90;;;9.30;99.90;;;;;;4987505;28;20551;-74
2022/04/07 07:08:11;;;;;;;2.77;0.77;;;9.10;99.90;;;;;;4984099;28;20038;-73
2022/04/07 07:10:37;;;;;;;1.27;0.40;;;8.70;99.90;;;;;;4973241;28;20022;-73
2022/04/07 07:13:03;;;;;;;3.93;0.90;;;;;;;;;;4978330;28;20058;-74
2022/04/07 07:15:28;;;;;;;4.17;0.50;;;7.00;99.90;;;;;;4983620;28;20069;-74
2022/04/07 07:17:54;;;;;;;3.80;0.50;;;;;;;;;;4989328;28;20034;-74
2022/04/07 07:20:20;;;;;;;1.07;0.37;;;6.30;99.90;;;;;;4989990;28;20037;-75
2022/04/07 07:22:45;;;;;;;2.03;0.43;;;6.20;99.90;;;;;;4988178;28;20030;-74
2022/04/07 07:25:11;;;;;;;1.20;0.30;;;6.10;99.90;;;;;;4989404;28;20085;-74
2022/04/07 07:27:45;;;;;;;3.30;0.40;;;6.00;99.90;;;;;;4984762;28;20034;-74
2022/04/07 07:30:13;;;;;;;0.82;0.30;;;6.00;99.90;;;;;;4988417;28;20085;-74
2022/04/07 07:32:40;;;;;;;3.63;0.67;;;6.00;99.90;;;;;;4988315;28;20034;-75
2022/04/07 07:35:07;;;;;;;2.57;0.43;;;5.80;99.90;;;;;;4989846;28;20065;-74
2022/04/07 07:37:33;;;;;;;4.47;0.63;;;6.10;99.90;;;;;;4988286;28;20022;-74
2022/04/07 07:40:08;;;;;;;3.30;0.70;;;5.90;99.90;;;;;;4987636;28;20022;-74
2022/04/07 07:42:37;;;;;;;3.57;0.90;;;;;;;;;;4988376;28;20088;-75
2022/04/07 07:45:04;;;;;;;5.83;0.57;;;6.10;99.90;;;;;;4989265;28;20027;-74
2022/04/07 07:47:30;;;;;;;5.03;0.57;;;6.00;99.90;;;;;;4988133;28;20058;-74
2022/04/07 07:49:56;;;;;;;2.00;0.67;;;;;;;;;;4989394;28;20061;-74
2022/04/07 07:52:21;;;;;;;3.00;0.70;;;6.40;99.90;;;;;;4971712;28;20034;-74
2022/04/07 07:54:47;;;;;;;2.73;0.70;;;;;;;;;;4989913;28;20458;-73
2022/04/07 07:57:13;;;;;;;3.30;0.77;;;6.10;99.90;;;;;;4993457;28;20026;-72
2022/04/07 07:59:38;;;;;;;4.20;0.90;;;6.10;99.90;;;;;;4990308;28;20108;-72
2022/04/07 08:02:04;;;;;;;5.43;1.13;;;;;;;;;;4992981;28;20038;-72
2022/04/07 08:04:30;;;;;;;4.77;0.90;;;6.00;99.90;;;;;;4975274;28;20121;-71
2022/04/07 08:06:56;;;;;;;6.57;1.33;;;;;;;;;;4992975;28;20041;-72
2022/04/07 08:09:21;;;;;;;2.97;1.00;;;6.10;99.90;;;;;;4992599;28;20034;-72
2022/04/07 08:11:47;;;;;;;4.63;1.07;;;6.00;99.90;;;;;;4992980;28;20053;-72
2022/04/07 08:14:12;;;;;;;4.77;1.00;;;6.10;99.90;;;;;;4991661;28;20318;-72
2022/04/07 08:16:38;;;;;;;4.63;1.00;;;6.00;99.90;;;;;;4972900;28;20595;-72
2022/04/07 08:19:04;;;;;;;5.93;1.40;;;6.30;99.90;;;;;;4990727;28;20041;-72
2022/04/07 08:21:31;;;;;;;6.00;1.10;;;6.10;99.90;;;;;;4992898;28;20428;-72
2022/04/07 08:23:57;;;;;;;5.00;0.97;;;;;;;;;;4988144;28;20030;-72
2022/04/07 08:26:23;;;;;;;4.70;1.33;;;;;;;;;;4975304;28;20430;-72
2022/04/07 08:28:49;;;;;;;7.10;2.00;;;;;;;;;;4992026;28;20030;-72
2022/04/07 08:31:14;;;;;;;5.23;1.00;;;6.60;99.90;;;;;;4993138;28;20030;-73
2022/04/07 08:33:40;;;;;;;5.93;1.70;;;6.70;99.90;;;;;;4992476;28;20045;-73
2022/04/07 08:36:05;;;;;;;4.93;1.20;;;6.70;99.90;;;;;;4991720;28;20091;-73
2022/04/07 08:38:31;;;;;;;7.80;1.63;;;;;;;;;;4989366;28;20073;-73
2022/04/07 08:40:57;;;;;;;5.70;1.40;;;7.10;99.90;;;;;;4989582;28;20311;-72
2022/04/07 08:43:23;;;;;;;9.27;2.13;;;7.20;99.90;;;;;;4991074;28;20030;-74
2022/04/07 08:45:49;;;;;;;7.40;1.93;;;7.40;99.90;;;;;;4974134;28;20189;-74
2022/04/07 08:48:16;;;;;;;12.60;1.80;;;7.40;99.90;;;;;;4981630;28;20467;-73
2022/04/07 08:50:44;;;;;;;11.23;2.20;;;7.20;99.90;;;;;;4991944;28;20105;-73
2022/04/07 08:53:12;;;;;;;7.43;2.60;;;7.60;99.90;;;;;;4991427;28;20066;-73
2022/04/07 08:55:38;;;;;;;4.43;1.50;;;7.50;99.90;;;;;;4992218;28;20038;-73
2022/04/07 08:58:04;;;;;;;5.87;1.50;;;7.60;99.90;;;;;;4992238;28;20027;-73
2022/04/07 09:00:31;;;;;;;7.50;1.77;;;7.60;99.90;;;;;;4990528;28;20058;-73
2022/04/07 09:02:57;;;;;;;6.40;1.93;;;8.00;99.90;;;;;;4991757;28;20508;-73
2022/04/07 09:05:24;;;;;;;6.13;1.73;;;8.20;99.90;;;;;;4991957;28;20053;-73
2022/04/07 09:07:51;;;;;;;5.27;1.67;;;8.40;99.90;;;;;;4990679;28;20030;-73
2022/04/07 09:10:22;;;;;;;4.73;1.10;;;8.30;99.90;;;;;;4992269;28;20088;-73
2022/04/07 09:12:48;;;;;;;6.03;1.10;;;7.90;99.90;;;;;;4990649;28;20026;-73
2022/04/07 09:15:15;;;;;;;3.37;0.97;;;8.40;99.90;;;;;;4991430;28;20467;-73
2022/04/07 09:17:54;;;;;;;5.57;1.13;;;8.40;99.90;;;;;;4990262;28;20558;-73
2022/04/07 09:20:21;;;;;;;4.57;1.00;;;8.70;99.90;;;;;;4991609;28;20018;-73
2022/04/07 09:23:00;;;;;;;5.27;1.67;;;8.90;99.90;;;;;;4991261;28;20438;-74
2022/04/07 09:25:26;;;;;;;9.17;1.43;;;9.20;99.90;;;;;;4991871;28;20050;-74
2022/04/07 09:27:53;;;;;;;7.03;1.13;;;9.20;99.90;;;;;;4990371;28;20031;-74
2022/04/07 09:30:20;;;;;;;5.73;1.10;;;;;;;;;;4991284;28;20069;-74
2022/04/07 09:32:46;;;;;;;4.10;1.20;;;9.40;99.90;;;;;;4990947;28;20356;-74
2022/04/07 09:35:12;;;;;;;9.70;1.67;;;9.30;99.90;;;;;;4990137;28;20031;-74
2022/04/07 09:37:42;;;;;;;5.70;1.00;;;9.20;99.90;;;;;;4991464;28;20026;-74
2022/04/07 09:40:14;;;;;;;5.77;0.97;;;9.40;99.90;;;;;;4978092;28;20039;-74
2022/04/07 09:42:43;;;;;;;4.70;1.33;;;9.60;99.90;;;;;;4971131;28;20043;-74
2022/04/07 09:45:12;;;;;;;5.37;1.20;;;9.40;99.90;;;;;;4977362;28;20045;-74
2022/04/07 09:47:49;;;;;;;7.77;1.10;;;9.50;99.90;;;;;;4990889;28;20486;-75
2022/04/07 09:50:22;;;;;;;8.00;1.70;;;9.50;99.90;;;;;;4990796;28;20077;-75
2022/04/07 09:52:58;;;;;;;8.02;1.20;;;9.70;99.90;;;;;;4989922;28;20065;-74
2022/04/07 09:55:34;;;;;;;7.70;1.10;;;9.60;99.90;;;;;;4987445;28;20027;-74
2022/04/07 09:58:02;;;;;;;3.03;0.60;;;9.60;99.90;;;;;;4977854;28;20034;-74
2022/04/07 10:00:28;;;;;;;6.37;1.50;;;9.70;99.90;;;;;;4990690;28;20167;-75
2022/04/07 10:02:54;;;;;;;4.37;1.03;;;;;;;;;;4991233;28;20057;-75
2022/04/07 10:05:21;;;;;;;9.87;2.00;;;9.70;99.90;;;;;;4989902;28;20027;-75
2022/04/07 10:07:49;;;;;;;7.20;1.73;;;9.80;99.90;;;;;;4990017;28;20745;-74
2022/04/07 10:10:14;;;;;;;5.70;0.70;;;10.00;99.90;;;;;;4989213;28;20546;-75
2022/04/07 10:12:40;;;;;;;8.57;0.90;;;9.90;99.90;;;;;;4978053;28;20027;-75
2022/04/07 10:15:06;;;;;;;4.60;1.27;;;10.10;99.90;;;;;;4987986;28;20460;-75
2022/04/07 10:17:35;;;;;;;4.80;0.93;;;9.90;99.90;;;;;;4968202;28;20503;-75
2022/04/07 10:20:05;;;;;;;5.90;0.60;;;10.10;99.90;;;;;;4990903;28;20030;-75
2022/04/07 10:22:45;;;;;;;4.43;0.87;;;10.10;99.90;;;;;;4990441;28;20034;-74
2022/04/07 10:25:13;;;;;;;5.70;1.00;;;10.20;99.90;;;;;;4989871;28;20057;-75
2022/04/07 10:27:43;;;;;;;8.87;1.97;;;10.50;99.90;;;;;;4985145;28;20047;-74
2022/04/07 10:30:11;;;;;;;7.40;0.90;;;10.30;99.90;;;;;;4967142;28;20363;-75
2022/04/07 10:32:38;;;;;;;8.23;1.37;;;10.60;99.90;;;;;;4990626;28;20038;-75
2022/04/07 10:35:04;;;;;;;6.97;1.03;;;10.40;99.90;;;;;;4990357;28;20412;-75
2022/04/07 10:37:45;;;;;;;5.27;1.13;;;10.40;99.90;;;;;;4988811;28;20475;-75
2022/04/07 10:40:50;;;;;;;4.37;0.90;;;10.10;99.90;;;;;;4990616;28;20383;-75
2022/04/07 10:43:25;;;;;;;6.07;1.00;;;9.80;99.90;;;;;;4987237;28;20031;-76
2022/04/07 10:46:09;;;;;;;5.47;0.90;;;10.30;99.90;;;;;;4985865;28;20031;-75
2022/04/07 10:48:35;;;;;;;6.60;1.00;;;10.30;99.90;;;;;;4980643;28;20084;-75
2022/04/07 10:51:09;;;;;;;6.57;1.13;;;10.30;99.90;;;;;;4989634;28;20022;-75
2022/04/07 10:53:36;;;;;;;;;;;10.40;99.90;;;;;;4988212;28;20113;-75
2022/04/07 10:56:24;;;;;;;6.43;0.97;;;10.50;99.90;;;;;;4990174;28;19906;-75
2022/04/07 10:58:56;;;;;;;7.77;1.90;;;10.50;99.90;;;;;;4990058;28;20022;-75
2022/04/07 11:01:30;;;;;;;7.10;2.03;;;10.50;99.90;;;;;;4989614;28;20033;-75
2022/04/07 11:04:20;;;;;;;8.90;2.00;;;10.40;99.90;;;;;;4990119;28;20050;-75
2022/04/07 11:07:05;;;;;;;6.37;1.57;;;10.70;99.90;;;;;;4989405;28;20472;-75
2022/04/07 11:09:49;;;;;;;4.88;1.40;;;10.40;99.90;;;;;;4989499;28;20054;-75
2022/04/07 11:12:25;;;;;;;9.57;1.67;;;10.30;99.90;;;;;;4989333;28;20077;-75
2022/04/07 11:14:54;;;;;;;8.70;1.77;;;10.20;99.90;;;;;;4988472;28;20026;-75
2022/04/07 11:17:35;;;;;;;7.63;1.67;;;10.10;99.90;;;;;;4988638;28;20122;-74
2022/04/07 11:20:22;;;;;;;12.33;2.03;;;10.10;99.90;;;;;;4989320;28;20031;-75
2022/04/07 11:23:13;;;;;;;12.93;2.87;;;10.00;99.90;;;;;;4972861;28;20031;-75
2022/04/07 11:25:42;;;;;;;7.87;2.33;;;10.40;99.90;;;;;;4969704;28;20058;-75
2022/04/07 11:28:22;;;;;;;9.53;1.63;;;10.30;99.90;;;;;;4984000;28;20038;-74
2022/04/07 11:31:03;;;;;;;5.00;1.80;;;9.90;99.90;;;;;;4984588;28;20407;-75
2022/04/07 11:33:35;;;;;;;8.70;1.90;;;10.40;99.90;;;;;;4972355;28;20084;-75
2022/04/07 11:36:00;;;;;;;11.57;1.83;;;10.10;99.90;;;;;;4988591;28;20026;-74
2022/04/07 11:38:31;;;;;;;9.87;2.57;;;10.10;99.90;;;;;;4989667;28;20030;-74
2022/04/07 11:41:03;;;;;;;13.57;2.30;;;10.10;99.90;;;;;;4988406;28;20046;-74
2022/04/07 11:43:30;;;;;;;6.47;1.70;;;10.20;99.90;;;;;;4988284;28;20116;-75
2022/04/07 11:45:57;;;;;;;6.37;1.20;;;10.20;99.90;;;;;;4989722;28;20023;-74
2022/04/07 11:48:24;;;;;;;7.50;1.40;;;10.30;99.90;;;;;;4988407;28;20085;-74
2022/04/07 11:50:52;;;;;;;5.97;1.00;;;10.40;99.90;;;;;;4959660;28;20031;-74
2022/04/07 11:53:18;;;;;;;10.40;1.50;;;10.70;99.90;;;;;;4987099;28;20072;-74
2022/04/07 11:55:44;;;;;;;19.33;2.73;;;10.70;99.90;;;;;;4998972;28;20054;-74
2022/04/07 11:58:10;;;;;;;14.00;2.47;;;10.80;99.90;;;;;;4989741;28;20057;-74
2022/04/07 12:00:36;;;;;;;8.03;1.53;;;11.00;99.90;;;;;;4989431;28;20046;-74
2022/04/07 12:03:03;;;;;;;11.17;1.83;;;10.90;99.90;;;;;;4989789;28;20161;-75
2022/04/07 12:05:32;;;;;;;14.30;2.10;;;11.00;99.90;;;;;;4992999;28;20038;-74
2022/04/07 12:08:11;;;;;;;11.17;3.13;;;10.90;99.90;;;;;;4988854;28;20101;-74
2022/04/07 12:10:38;;;;;;;15.80;2.03;;;11.00;99.90;;;;;;4987731;28;20084;-74
2022/04/07 12:13:04;;;;;;;17.87;3.87;;;11.00;99.90;;;;;;4989522;28;20377;-74
2022/04/07 12:15:30;;;;;;;13.80;2.40;;;11.20;99.90;;;;;;4980049;28;20023;-74
2022/04/07 12:18:06;;;;;;;11.90;2.37;;;11.00;99.90;;;;;;4970012;28;20027;-74
2022/04/07 12:20:33;;;;;;;9.27;1.80;;;11.10;99.90;;;;;;4975591;28;20117;-74
2022/04/07 12:23:09;;;;;;;9.33;1.77;;;10.90;99.90;;;;;;4989528;28;20038;-74
2022/04/07 12:25:40;;;;;;;13.63;2.73;;;10.80;99.90;;;;;;4988857;28;20050;-74
2022/04/07 12:28:13;;;;;;;7.23;1.70;;;10.90;99.90;;;;;;4989376;28;20595;-74
2022/04/07 12:30:48;;;;;;;11.77;1.80;;;10.70;99.90;;;;;;4989124;28;20026;-75
2022/04/07 12:33:39;;;;;;;14.13;2.37;;;10.60;99.90;;;;;;4989443;28;20089;-75
2022/04/07 12:36:06;;;;;;;7.00;1.50;;;10.70;99.90;;;;;;4978950;28;20031;-75
2022/04/07 12:38:31;;;;;;;11.13;2.20;;;10.70;99.90;;;;;;4969576;28;20023;-74
2022/04/07 12:41:09;;;;;;;10.80;1.60;;;10.70;99.90;;;;;;4981432;28;20430;-74
2022/04/07 12:43:52;;;;;;;8.93;2.23;;;10.70;99.90;;;;;;4981002;28;20153;-74
2022/04/07 12:46:18;;;;;;;12.03;2.10;;;10.90;99.90;;;;;;4983718;28;20438;-74
2022/04/07 12:49:06;;;;;;;15.40;2.30;;;10.70;99.90;;;;;;4991190;28;20034;-74
2022/04/07 12:51:33;;;;;;;10.13;1.50;;;11.10;99.90;;;;;;4991582;28;20534;-73
2022/04/07 12:54:11;;;;;;;11.07;2.77;;;11.00;99.90;;;;;;4992086;28;20026;-74
2022/04/07 12:56:37;;;;;;;7.70;1.90;;;11.30;99.90;;;;;;4981142;28;20042;-74
2022/04/07 12:59:05;;;;;;;9.23;1.60;;;11.80;98.90;;;;;;4972669;28;20527;-73
2022/04/07 13:01:31;;;;;;;8.10;1.57;;;11.60;98.50;;;;;;4992157;28;20026;-73
2022/04/07 13:03:57;;;;;;;10.73;1.97;;;12.60;97.90;;;;;;4990161;28;20073;-72
2022/04/07 13:06:24;;;;;;;9.37;2.23;;;11.70;96.90;;;;;;4990671;28;20155;-73
2022/04/07 13:08:50;;;;;;;9.83;1.20;;;12.60;96.30;;;;;;4990585;28;20029;-73